sensor_id;sensor_type;location;lat;lon;timestamp;P1;durP1;ratioP1;P2;durP2;ratioP2
68923;SDS011;55961;52.156;20.942;2023-02-21T00:00:57;3.13;;;0.85;;
68923;SDS011;55961;52.156;20.942;2023-02-21T00:03:42;3.00;;;0.53;;
68923;SDS011;55961;52.156;20.942;2023-02-21T00:06:26;2.25;;;0.65;;
68923;SDS011;55961;52.156;20.942;2023-02-21T00:09:11;1.92;;;0.45;;
68923;SDS011;55961;52.156;20.942;2023-02-21T00:11:55;2.63;;;0.65;;
68923;SDS011;55961;52.156;20.942;2023-02-21T00:14:40;3.33;;;0.77;;
68923;SDS011;55961;52.156;20.942;2023-02-21T00:17:24;3.23;;;0.50;;
68923;SDS011;55961;52.156;20.942;2023-02-21T00:20:09;3.45;;;0.50;;
68923;SDS011;55961;52.156;20.942;2023-02-21T00:22:54;2.35;;;0.57;;
68923;SDS011;55961;52.156;20.942;2023-02-21T00:25:38;3.45;;;0.63;;
68923;SDS011;55961;52.156;20.942;2023-02-21T00:28:23;1.75;;;0.40;;
68923;SDS011;55961;52.156;20.942;2023-02-21T00:31:07;2.70;;;0.40;;
68923;SDS011;55961;52.156;20.942;2023-02-21T00:33:51;1.42;;;0.30;;
68923;SDS011;55961;52.156;20.942;2023-02-21T00:36:36;1.88;;;0.43;;
68923;SDS011;55961;52.156;20.942;2023-02-21T00:39:20;3.55;;;0.63;;
68923;SDS011;55961;52.156;20.942;2023-02-21T00:42:05;2.13;;;0.30;;
68923;SDS011;55961;52.156;20.942;2023-02-21T00:44:49;1.57;;;0.30;;
68923;SDS011;55961;52.156;20.942;2023-02-21T00:47:34;2.75;;;0.63;;
68923;SDS011;55961;52.156;20.942;2023-02-21T00:50:18;1.58;;;0.35;;
68923;SDS011;55961;52.156;20.942;2023-02-21T00:53:03;1.85;;;0.40;;
68923;SDS011;55961;52.156;20.942;2023-02-21T00:55:47;2.35;;;0.40;;
68923;SDS011;55961;52.156;20.942;2023-02-21T00:58:32;2.00;;;0.40;;
68923;SDS011;55961;52.156;20.942;2023-02-21T01:01:16;2.45;;;0.43;;
68923;SDS011;55961;52.156;20.942;2023-02-21T01:04:01;2.08;;;0.50;;
68923;SDS011;55961;52.156;20.942;2023-02-21T01:06:45;2.28;;;0.45;;
68923;SDS011;55961;52.156;20.942;2023-02-21T01:09:33;2.60;;;0.80;;
68923;SDS011;55961;52.156;20.942;2023-02-21T01:12:17;3.00;;;0.63;;
68923;SDS011;55961;52.156;20.942;2023-02-21T01:15:02;2.22;;;0.30;;
68923;SDS011;55961;52.156;20.942;2023-02-21T01:17:46;2.38;;;0.40;;
68923;SDS011;55961;52.156;20.942;2023-02-21T01:20:31;2.65;;;0.45;;
68923;SDS011;55961;52.156;20.942;2023-02-21T01:23:15;1.63;;;0.30;;
68923;SDS011;55961;52.156;20.942;2023-02-21T01:26:00;2.70;;;0.40;;
68923;SDS011;55961;52.156;20.942;2023-02-21T01:28:46;2.20;;;0.50;;
68923;SDS011;55961;52.156;20.942;2023-02-21T01:31:30;2.28;;;0.25;;
68923;SDS011;55961;52.156;20.942;2023-02-21T01:34:15;2.55;;;0.45;;
68923;SDS011;55961;52.156;20.942;2023-02-21T01:36:59;1.75;;;0.38;;
68923;SDS011;55961;52.156;20.942;2023-02-21T01:39:44;1.90;;;0.30;;
68923;SDS011;55961;52.156;20.942;2023-02-21T01:42:28;1.67;;;0.30;;
68923;SDS011;55961;52.156;20.942;2023-02-21T01:45:28;3.80;;;0.50;;
68923;SDS011;55961;52.156;20.942;2023-02-21T01:48:24;2.17;;;0.40;;
68923;SDS011;55961;52.156;20.942;2023-02-21T01:51:10;3.53;;;0.50;;
68923;SDS011;55961;52.156;20.942;2023-02-21T01:53:57;3.33;;;0.40;;
68923;SDS011;55961;52.156;20.942;2023-02-21T01:56:42;5.03;;;0.55;;
68923;SDS011;55961;52.156;20.942;2023-02-21T01:59:27;3.95;;;0.50;;
68923;SDS011;55961;52.156;20.942;2023-02-21T02:02:23;2.60;;;0.60;;
68923;SDS011;55961;52.156;20.942;2023-02-21T02:05:16;3.47;;;0.60;;
68923;SDS011;55961;52.156;20.942;2023-02-21T02:08:01;2.23;;;0.43;;
68923;SDS011;55961;52.156;20.942;2023-02-21T02:10:47;2.35;;;0.38;;
68923;SDS011;55961;52.156;20.942;2023-02-21T02:13:50;3.55;;;0.73;;
68923;SDS011;55961;52.156;20.942;2023-02-21T02:16:34;2.63;;;0.40;;
68923;SDS011;55961;52.156;20.942;2023-02-21T02:19:16;3.47;;;0.60;;
68923;SDS011;55961;52.156;20.942;2023-02-21T02:22:37;2.23;;;0.27;;
68923;SDS011;55961;52.156;20.942;2023-02-21T02:35:38;3.07;;;0.40;;
68923;SDS011;55961;52.156;20.942;2023-02-21T02:43:49;2.55;;;0.20;;
68923;SDS011;55961;52.156;20.942;2023-02-21T02:46:29;2.25;;;0.22;;
68923;SDS011;55961;52.156;20.942;2023-02-21T02:49:01;4.67;;;0.37;;
68923;SDS011;55961;52.156;20.942;2023-02-21T02:51:32;3.78;;;0.20;;
68923;SDS011;55961;52.156;20.942;2023-02-21T02:53:59;3.47;;;0.25;;
68923;SDS011;55961;52.156;20.942;2023-02-21T02:56:25;1.52;;;0.30;;
68923;SDS011;55961;52.156;20.942;2023-02-21T02:58:55;2.00;;;0.20;;
68923;SDS011;55961;52.156;20.942;2023-02-21T03:07:06;1.75;;;0.28;;
68923;SDS011;55961;52.156;20.942;2023-02-21T03:13:08;3.43;;;0.50;;
68923;SDS011;55961;52.156;20.942;2023-02-21T03:15:23;5.88;;;0.52;;
68923;SDS011;55961;52.156;20.942;2023-02-21T03:17:56;3.42;;;0.45;;
68923;SDS011;55961;52.156;20.942;2023-02-21T03:20:31;2.80;;;0.52;;
68923;SDS011;55961;52.156;20.942;2023-02-21T03:22:58;3.80;;;0.37;;
68923;SDS011;55961;52.156;20.942;2023-02-21T03:25:27;3.42;;;0.40;;
68923;SDS011;55961;52.156;20.942;2023-02-21T03:27:53;3.13;;;0.60;;
68923;SDS011;55961;52.156;20.942;2023-02-21T03:30:20;3.50;;;0.50;;
68923;SDS011;55961;52.156;20.942;2023-02-21T03:32:50;4.22;;;0.50;;
68923;SDS011;55961;52.156;20.942;2023-02-21T03:35:18;3.70;;;0.63;;
68923;SDS011;55961;52.156;20.942;2023-02-21T03:37:48;3.15;;;0.35;;
68923;SDS011;55961;52.156;20.942;2023-02-21T03:40:20;3.50;;;0.47;;
68923;SDS011;55961;52.156;20.942;2023-02-21T03:42:48;4.43;;;0.43;;
68923;SDS011;55961;52.156;20.942;2023-02-21T03:45:14;6.00;;;0.32;;
68923;SDS011;55961;52.156;20.942;2023-02-21T03:47:41;4.43;;;0.70;;
68923;SDS011;55961;52.156;20.942;2023-02-21T03:50:07;6.47;;;0.40;;
68923;SDS011;55961;52.156;20.942;2023-02-21T03:52:33;3.88;;;0.60;;
68923;SDS011;55961;52.156;20.942;2023-02-21T03:54:59;5.05;;;0.60;;
68923;SDS011;55961;52.156;20.942;2023-02-21T03:57:24;3.27;;;0.63;;
68923;SDS011;55961;52.156;20.942;2023-02-21T03:59:51;5.07;;;0.57;;
68923;SDS011;55961;52.156;20.942;2023-02-21T04:02:16;7.37;;;0.70;;
68923;SDS011;55961;52.156;20.942;2023-02-21T04:04:43;4.53;;;0.40;;
68923;SDS011;55961;52.156;20.942;2023-02-21T04:07:12;3.50;;;0.55;;
68923;SDS011;55961;52.156;20.942;2023-02-21T04:09:39;5.82;;;0.52;;
68923;SDS011;55961;52.156;20.942;2023-02-21T04:12:05;3.60;;;0.52;;
68923;SDS011;55961;52.156;20.942;2023-02-21T04:14:32;6.32;;;0.63;;
68923;SDS011;55961;52.156;20.942;2023-02-21T04:16:57;7.27;;;0.50;;
68923;SDS011;55961;52.156;20.942;2023-02-21T04:19:23;5.88;;;0.80;;
68923;SDS011;55961;52.156;20.942;2023-02-21T04:21:49;4.65;;;0.50;;
68923;SDS011;55961;52.156;20.942;2023-02-21T04:24:15;6.80;;;0.47;;
68923;SDS011;55961;52.156;20.942;2023-02-21T04:26:41;6.05;;;0.60;;
68923;SDS011;55961;52.156;20.942;2023-02-21T04:29:07;4.75;;;0.50;;
68923;SDS011;55961;52.156;20.942;2023-02-21T04:31:33;2.78;;;0.60;;
68923;SDS011;55961;52.156;20.942;2023-02-21T04:34:00;4.40;;;0.50;;
68923;SDS011;55961;52.156;20.942;2023-02-21T04:36:25;5.63;;;0.57;;
68923;SDS011;55961;52.156;20.942;2023-02-21T04:38:52;6.00;;;0.65;;
68923;SDS011;55961;52.156;20.942;2023-02-21T04:41:18;3.13;;;0.40;;
68923;SDS011;55961;52.156;20.942;2023-02-21T04:43:44;7.23;;;0.90;;
68923;SDS011;55961;52.156;20.942;2023-02-21T04:46:10;10.48;;;0.70;;
68923;SDS011;55961;52.156;20.942;2023-02-21T04:48:43;4.55;;;0.68;;
68923;SDS011;55961;52.156;20.942;2023-02-21T04:51:11;4.53;;;0.57;;
68923;SDS011;55961;52.156;20.942;2023-02-21T04:53:39;6.63;;;0.80;;
68923;SDS011;55961;52.156;20.942;2023-02-21T04:56:05;4.33;;;0.40;;
68923;SDS011;55961;52.156;20.942;2023-02-21T04:58:32;4.38;;;0.43;;
68923;SDS011;55961;52.156;20.942;2023-02-21T05:00:58;6.50;;;0.40;;
68923;SDS011;55961;52.156;20.942;2023-02-21T05:03:24;5.60;;;0.50;;
68923;SDS011;55961;52.156;20.942;2023-02-21T05:05:50;7.00;;;0.70;;
68923;SDS011;55961;52.156;20.942;2023-02-21T05:08:16;4.10;;;0.30;;
68923;SDS011;55961;52.156;20.942;2023-02-21T05:10:42;10.40;;;0.47;;
68923;SDS011;55961;52.156;20.942;2023-02-21T05:13:08;4.57;;;0.90;;
68923;SDS011;55961;52.156;20.942;2023-02-21T05:15:34;3.75;;;0.70;;
68923;SDS011;55961;52.156;20.942;2023-02-21T05:18:00;4.32;;;0.57;;
68923;SDS011;55961;52.156;20.942;2023-02-21T05:20:26;6.80;;;0.67;;
68923;SDS011;55961;52.156;20.942;2023-02-21T05:22:53;4.90;;;0.47;;
68923;SDS011;55961;52.156;20.942;2023-02-21T05:25:20;7.20;;;0.63;;
68923;SDS011;55961;52.156;20.942;2023-02-21T05:27:47;10.30;;;0.82;;
68923;SDS011;55961;52.156;20.942;2023-02-21T05:30:15;8.80;;;0.70;;
68923;SDS011;55961;52.156;20.942;2023-02-21T05:32:43;10.73;;;0.93;;
68923;SDS011;55961;52.156;20.942;2023-02-21T05:35:09;6.50;;;0.65;;
68923;SDS011;55961;52.156;20.942;2023-02-21T05:37:36;6.47;;;0.57;;
68923;SDS011;55961;52.156;20.942;2023-02-21T05:40:02;7.32;;;0.60;;
68923;SDS011;55961;52.156;20.942;2023-02-21T05:42:30;2.37;;;0.60;;
68923;SDS011;55961;52.156;20.942;2023-02-21T05:44:56;3.83;;;0.63;;
68923;SDS011;55961;52.156;20.942;2023-02-21T05:47:22;6.50;;;1.15;;
68923;SDS011;55961;52.156;20.942;2023-02-21T05:49:48;5.95;;;0.95;;
68923;SDS011;55961;52.156;20.942;2023-02-21T05:52:15;5.40;;;0.45;;
68923;SDS011;55961;52.156;20.942;2023-02-21T05:54:42;11.13;;;1.63;;
68923;SDS011;55961;52.156;20.942;2023-02-21T05:57:08;4.65;;;0.75;;
68923;SDS011;55961;52.156;20.942;2023-02-21T05:59:36;5.70;;;0.30;;
68923;SDS011;55961;52.156;20.942;2023-02-21T06:02:02;3.88;;;0.45;;
68923;SDS011;55961;52.156;20.942;2023-02-21T06:04:28;7.27;;;1.43;;
68923;SDS011;55961;52.156;20.942;2023-02-21T06:06:54;7.25;;;0.95;;
68923;SDS011;55961;52.156;20.942;2023-02-21T06:09:19;6.55;;;0.73;;
68923;SDS011;55961;52.156;20.942;2023-02-21T06:11:46;9.07;;;1.10;;
68923;SDS011;55961;52.156;20.942;2023-02-21T06:14:18;5.33;;;0.40;;
68923;SDS011;55961;52.156;20.942;2023-02-21T06:16:45;9.70;;;1.45;;
68923;SDS011;55961;52.156;20.942;2023-02-21T06:19:12;7.63;;;0.85;;
68923;SDS011;55961;52.156;20.942;2023-02-21T06:21:41;6.50;;;0.73;;
68923;SDS011;55961;52.156;20.942;2023-02-21T06:24:07;2.75;;;0.35;;
68923;SDS011;55961;52.156;20.942;2023-02-21T06:26:35;6.03;;;0.60;;
68923;SDS011;55961;52.156;20.942;2023-02-21T06:29:05;7.78;;;0.60;;
68923;SDS011;55961;52.156;20.942;2023-02-21T06:31:31;7.60;;;0.88;;
68923;SDS011;55961;52.156;20.942;2023-02-21T06:33:57;8.43;;;0.63;;
68923;SDS011;55961;52.156;20.942;2023-02-21T06:36:24;6.67;;;0.43;;
68923;SDS011;55961;52.156;20.942;2023-02-21T06:38:52;7.28;;;0.90;;
68923;SDS011;55961;52.156;20.942;2023-02-21T06:41:24;6.07;;;0.65;;
68923;SDS011;55961;52.156;20.942;2023-02-21T06:43:52;4.88;;;0.68;;
68923;SDS011;55961;52.156;20.942;2023-02-21T06:46:19;7.63;;;1.17;;
68923;SDS011;55961;52.156;20.942;2023-02-21T06:48:47;7.80;;;0.77;;
68923;SDS011;55961;52.156;20.942;2023-02-21T06:51:13;5.18;;;0.85;;
68923;SDS011;55961;52.156;20.942;2023-02-21T06:53:42;8.98;;;0.82;;
68923;SDS011;55961;52.156;20.942;2023-02-21T06:56:09;4.07;;;0.60;;
68923;SDS011;55961;52.156;20.942;2023-02-21T06:58:36;4.43;;;0.70;;
68923;SDS011;55961;52.156;20.942;2023-02-21T07:01:02;5.50;;;0.70;;
68923;SDS011;55961;52.156;20.942;2023-02-21T07:03:28;7.65;;;0.77;;
68923;SDS011;55961;52.156;20.942;2023-02-21T07:05:54;4.55;;;0.70;;
68923;SDS011;55961;52.156;20.942;2023-02-21T07:08:19;3.90;;;0.60;;
68923;SDS011;55961;52.156;20.942;2023-02-21T07:10:46;5.50;;;1.13;;
68923;SDS011;55961;52.156;20.942;2023-02-21T07:13:12;5.90;;;0.85;;
68923;SDS011;55961;52.156;20.942;2023-02-21T07:15:38;5.78;;;0.77;;
68923;SDS011;55961;52.156;20.942;2023-02-21T07:18:04;13.23;;;1.23;;
68923;SDS011;55961;52.156;20.942;2023-02-21T07:20:30;15.07;;;1.80;;
68923;SDS011;55961;52.156;20.942;2023-02-21T07:22:57;7.72;;;0.75;;
68923;SDS011;55961;52.156;20.942;2023-02-21T07:25:23;6.45;;;0.75;;
68923;SDS011;55961;52.156;20.942;2023-02-21T07:27:49;8.25;;;0.90;;
68923;SDS011;55961;52.156;20.942;2023-02-21T07:30:17;7.45;;;0.82;;
68923;SDS011;55961;52.156;20.942;2023-02-21T07:32:43;9.53;;;1.37;;
68923;SDS011;55961;52.156;20.942;2023-02-21T07:35:09;10.98;;;1.15;;
68923;SDS011;55961;52.156;20.942;2023-02-21T07:37:36;10.70;;;0.98;;
68923;SDS011;55961;52.156;20.942;2023-02-21T07:40:02;6.65;;;1.25;;
68923;SDS011;55961;52.156;20.942;2023-02-21T07:42:31;9.73;;;1.00;;
68923;SDS011;55961;52.156;20.942;2023-02-21T07:44:57;6.00;;;0.97;;
68923;SDS011;55961;52.156;20.942;2023-02-21T07:47:24;8.23;;;1.00;;
68923;SDS011;55961;52.156;20.942;2023-02-21T07:49:50;8.23;;;1.17;;
68923;SDS011;55961;52.156;20.942;2023-02-21T07:52:18;5.70;;;1.10;;
68923;SDS011;55961;52.156;20.942;2023-02-21T07:54:45;8.70;;;1.70;;
68923;SDS011;55961;52.156;20.942;2023-02-21T07:57:11;7.17;;;0.83;;
68923;SDS011;55961;52.156;20.942;2023-02-21T07:59:37;5.80;;;0.90;;
68923;SDS011;55961;52.156;20.942;2023-02-21T08:02:03;13.77;;;1.50;;
68923;SDS011;55961;52.156;20.942;2023-02-21T08:04:29;7.70;;;1.08;;
68923;SDS011;55961;52.156;20.942;2023-02-21T08:06:59;7.00;;;0.93;;
68923;SDS011;55961;52.156;20.942;2023-02-21T08:09:26;6.63;;;1.50;;
68923;SDS011;55961;52.156;20.942;2023-02-21T08:11:52;7.10;;;1.00;;
68923;SDS011;55961;52.156;20.942;2023-02-21T08:14:19;8.57;;;1.17;;
68923;SDS011;55961;52.156;20.942;2023-02-21T08:16:45;5.88;;;1.05;;
68923;SDS011;55961;52.156;20.942;2023-02-21T08:19:12;7.20;;;0.82;;
68923;SDS011;55961;52.156;20.942;2023-02-21T08:21:38;7.43;;;1.20;;
68923;SDS011;55961;52.156;20.942;2023-02-21T08:24:10;17.58;;;1.80;;
68923;SDS011;55961;52.156;20.942;2023-02-21T08:26:36;7.25;;;1.25;;
68923;SDS011;55961;52.156;20.942;2023-02-21T08:29:02;9.65;;;1.35;;
68923;SDS011;55961;52.156;20.942;2023-02-21T08:31:28;6.63;;;1.67;;
68923;SDS011;55961;52.156;20.942;2023-02-21T08:33:54;7.55;;;1.10;;
68923;SDS011;55961;52.156;20.942;2023-02-21T08:36:20;11.57;;;1.35;;
68923;SDS011;55961;52.156;20.942;2023-02-21T08:38:48;6.53;;;1.10;;
68923;SDS011;55961;52.156;20.942;2023-02-21T08:41:14;12.35;;;1.80;;
68923;SDS011;55961;52.156;20.942;2023-02-21T08:43:40;6.75;;;1.00;;
68923;SDS011;55961;52.156;20.942;2023-02-21T08:46:06;4.87;;;0.67;;
68923;SDS011;55961;52.156;20.942;2023-02-21T08:48:33;8.38;;;1.13;;
68923;SDS011;55961;52.156;20.942;2023-02-21T08:50:59;8.75;;;1.13;;
68923;SDS011;55961;52.156;20.942;2023-02-21T08:53:25;5.23;;;1.00;;
68923;SDS011;55961;52.156;20.942;2023-02-21T08:55:51;5.53;;;1.00;;
68923;SDS011;55961;52.156;20.942;2023-02-21T08:58:17;6.25;;;1.23;;
68923;SDS011;55961;52.156;20.942;2023-02-21T09:00:42;6.10;;;0.90;;
68923;SDS011;55961;52.156;20.942;2023-02-21T09:03:08;5.05;;;0.90;;
68923;SDS011;55961;52.156;20.942;2023-02-21T09:05:34;9.63;;;1.17;;
68923;SDS011;55961;52.156;20.942;2023-02-21T09:08:00;10.45;;;1.45;;
68923;SDS011;55961;52.156;20.942;2023-02-21T09:10:30;7.53;;;1.03;;
68923;SDS011;55961;52.156;20.942;2023-02-21T09:13:00;7.45;;;0.95;;
68923;SDS011;55961;52.156;20.942;2023-02-21T09:15:26;7.05;;;1.30;;
68923;SDS011;55961;52.156;20.942;2023-02-21T09:17:53;9.63;;;2.08;;
68923;SDS011;55961;52.156;20.942;2023-02-21T09:20:21;14.70;;;2.00;;
68923;SDS011;55961;52.156;20.942;2023-02-21T09:22:49;11.88;;;1.75;;
68923;SDS011;55961;52.156;20.942;2023-02-21T09:25:16;7.22;;;0.80;;
68923;SDS011;55961;52.156;20.942;2023-02-21T09:27:44;4.72;;;0.65;;
68923;SDS011;55961;52.156;20.942;2023-02-21T09:30:19;9.53;;;1.07;;
68923;SDS011;55961;52.156;20.942;2023-02-21T09:32:48;9.25;;;1.65;;
68923;SDS011;55961;52.156;20.942;2023-02-21T09:35:14;6.53;;;0.98;;
68923;SDS011;55961;52.156;20.942;2023-02-21T09:37:41;7.78;;;0.82;;
68923;SDS011;55961;52.156;20.942;2023-02-21T09:40:17;7.20;;;1.95;;
68923;SDS011;55961;52.156;20.942;2023-02-21T09:42:48;12.03;;;1.10;;
68923;SDS011;55961;52.156;20.942;2023-02-21T09:45:17;7.57;;;1.25;;
68923;SDS011;55961;52.156;20.942;2023-02-21T09:47:50;7.95;;;1.13;;
68923;SDS011;55961;52.156;20.942;2023-02-21T09:50:19;6.75;;;1.13;;
68923;SDS011;55961;52.156;20.942;2023-02-21T09:52:52;8.80;;;1.40;;
68923;SDS011;55961;52.156;20.942;2023-02-21T09:57:59;10.50;;;1.92;;
68923;SDS011;55961;52.156;20.942;2023-02-21T10:00:32;8.13;;;1.30;;
68923;SDS011;55961;52.156;20.942;2023-02-21T10:03:07;9.93;;;1.52;;
68923;SDS011;55961;52.156;20.942;2023-02-21T10:05:41;8.20;;;1.25;;
68923;SDS011;55961;52.156;20.942;2023-02-21T10:19:40;8.37;;;1.10;;
68923;SDS011;55961;52.156;20.942;2023-02-21T10:22:32;7.95;;;1.63;;
68923;SDS011;55961;52.156;20.942;2023-02-21T10:25:11;6.68;;;1.05;;
68923;SDS011;55961;52.156;20.942;2023-02-21T10:27:53;9.93;;;1.00;;
68923;SDS011;55961;52.156;20.942;2023-02-21T10:30:53;6.82;;;1.13;;
68923;SDS011;55961;52.156;20.942;2023-02-21T10:33:12;10.93;;;1.30;;
68923;SDS011;55961;52.156;20.942;2023-02-21T10:35:38;12.40;;;1.45;;
68923;SDS011;55961;52.156;20.942;2023-02-21T10:38:08;10.10;;;1.30;;
68923;SDS011;55961;52.156;20.942;2023-02-21T10:43:22;4.30;;;0.60;;
68923;SDS011;55961;52.156;20.942;2023-02-21T10:46:15;11.95;;;1.15;;
68923;SDS011;55961;52.156;20.942;2023-02-21T10:48:42;5.63;;;0.95;;
68923;SDS011;55961;52.156;20.942;2023-02-21T10:51:12;9.68;;;1.20;;
68923;SDS011;55961;52.156;20.942;2023-02-21T10:53:40;9.10;;;1.40;;
68923;SDS011;55961;52.156;20.942;2023-02-21T10:58:55;4.47;;;1.00;;
68923;SDS011;55961;52.156;20.942;2023-02-21T11:01:36;5.82;;;0.80;;
68923;SDS011;55961;52.156;20.942;2023-02-21T11:06:52;5.63;;;1.08;;
68923;SDS011;55961;52.156;20.942;2023-02-21T11:11:59;3.97;;;0.88;;
68923;SDS011;55961;52.156;20.942;2023-02-21T11:14:27;5.43;;;1.38;;
68923;SDS011;55961;52.156;20.942;2023-02-21T11:17:03;7.63;;;1.00;;
68923;SDS011;55961;52.156;20.942;2023-02-21T11:22:11;4.47;;;1.47;;
68923;SDS011;55961;52.156;20.942;2023-02-21T11:25:14;5.63;;;1.00;;
68923;SDS011;55961;52.156;20.942;2023-02-21T11:27:44;6.65;;;1.65;;
68923;SDS011;55961;52.156;20.942;2023-02-21T11:30:31;5.40;;;1.10;;
68923;SDS011;55961;52.156;20.942;2023-02-21T11:33:03;7.15;;;1.80;;
68923;SDS011;55961;52.156;20.942;2023-02-21T11:38:00;7.72;;;1.33;;
68923;SDS011;55961;52.156;20.942;2023-02-21T11:40:43;4.47;;;1.15;;
68923;SDS011;55961;52.156;20.942;2023-02-21T11:43:23;8.80;;;1.40;;
68923;SDS011;55961;52.156;20.942;2023-02-21T11:46:03;8.88;;;1.50;;
68923;SDS011;55961;52.156;20.942;2023-02-21T11:48:37;9.50;;;1.77;;
68923;SDS011;55961;52.156;20.942;2023-02-21T11:51:25;7.10;;;1.10;;
68923;SDS011;55961;52.156;20.942;2023-02-21T11:53:55;9.50;;;1.80;;
68923;SDS011;55961;52.156;20.942;2023-02-21T12:02:17;7.30;;;1.30;;
68923;SDS011;55961;52.156;20.942;2023-02-21T12:16:40;6.13;;;1.70;;
68923;SDS011;55961;52.156;20.942;2023-02-21T12:27:18;22.03;;;1.77;;
68923;SDS011;55961;52.156;20.942;2023-02-21T12:33:10;4.00;;;0.80;;
68923;SDS011;55961;52.156;20.942;2023-02-21T12:38:06;6.15;;;1.20;;
68923;SDS011;55961;52.156;20.942;2023-02-21T12:46:37;6.70;;;1.40;;
68923;SDS011;55961;52.156;20.942;2023-02-21T12:57:27;9.32;;;3.15;;
68923;SDS011;55961;52.156;20.942;2023-02-21T13:05:43;9.98;;;2.63;;
68923;SDS011;55961;52.156;20.942;2023-02-21T13:08:25;5.53;;;1.63;;
68923;SDS011;55961;52.156;20.942;2023-02-21T13:10:57;12.23;;;2.17;;
68923;SDS011;55961;52.156;20.942;2023-02-21T13:13:31;8.18;;;1.75;;
68923;SDS011;55961;52.156;20.942;2023-02-21T13:16:02;9.63;;;2.35;;
68923;SDS011;55961;52.156;20.942;2023-02-21T13:18:34;8.23;;;1.42;;
68923;SDS011;55961;52.156;20.942;2023-02-21T13:26:44;13.10;;;2.50;;
68923;SDS011;55961;52.156;20.942;2023-02-21T13:29:33;9.55;;;2.72;;
68923;SDS011;55961;52.156;20.942;2023-02-21T13:34:43;5.27;;;1.63;;
68923;SDS011;55961;52.156;20.942;2023-02-21T13:37:18;11.65;;;2.13;;
68923;SDS011;55961;52.156;20.942;2023-02-21T13:39:51;9.88;;;1.83;;
68923;SDS011;55961;52.156;20.942;2023-02-21T13:42:21;9.00;;;1.65;;
68923;SDS011;55961;52.156;20.942;2023-02-21T13:44:50;11.15;;;2.50;;
68923;SDS011;55961;52.156;20.942;2023-02-21T13:47:28;8.73;;;2.63;;
68923;SDS011;55961;52.156;20.942;2023-02-21T13:53:08;11.85;;;2.22;;
68923;SDS011;55961;52.156;20.942;2023-02-21T13:55:38;12.95;;;2.40;;
68923;SDS011;55961;52.156;20.942;2023-02-21T14:03:09;15.93;;;2.50;;
68923;SDS011;55961;52.156;20.942;2023-02-21T14:18:44;7.63;;;1.17;;
68923;SDS011;55961;52.156;20.942;2023-02-21T14:26:42;16.00;;;2.20;;
68923;SDS011;55961;52.156;20.942;2023-02-21T14:29:40;15.25;;;2.55;;
68923;SDS011;55961;52.156;20.942;2023-02-21T14:32:34;21.65;;;5.72;;
68923;SDS011;55961;52.156;20.942;2023-02-21T14:37:50;23.02;;;4.70;;
68923;SDS011;55961;52.156;20.942;2023-02-21T14:40:23;16.50;;;3.00;;
68923;SDS011;55961;52.156;20.942;2023-02-21T15:03:08;12.57;;;2.30;;
68923;SDS011;55961;52.156;20.942;2023-02-21T15:05:41;16.63;;;3.08;;
68923;SDS011;55961;52.156;20.942;2023-02-21T15:08:19;14.77;;;2.93;;
68923;SDS011;55961;52.156;20.942;2023-02-21T15:10:48;13.98;;;2.78;;
68923;SDS011;55961;52.156;20.942;2023-02-21T15:13:21;16.92;;;4.05;;
68923;SDS011;55961;52.156;20.942;2023-02-21T15:15:47;16.25;;;4.45;;
68923;SDS011;55961;52.156;20.942;2023-02-21T15:18:28;20.75;;;4.72;;
68923;SDS011;55961;52.156;20.942;2023-02-21T15:23:42;17.92;;;3.83;;
68923;SDS011;55961;52.156;20.942;2023-02-21T15:26:20;15.77;;;3.20;;
68923;SDS011;55961;52.156;20.942;2023-02-21T15:31:44;16.80;;;3.33;;
68923;SDS011;55961;52.156;20.942;2023-02-21T15:36:53;18.90;;;3.83;;
68923;SDS011;55961;52.156;20.942;2023-02-21T15:39:29;14.52;;;3.13;;
68923;SDS011;55961;52.156;20.942;2023-02-21T15:41:57;13.55;;;3.15;;
68923;SDS011;55961;52.156;20.942;2023-02-21T15:44:27;19.33;;;4.28;;
68923;SDS011;55961;52.156;20.942;2023-02-21T15:46:56;16.20;;;3.33;;
68923;SDS011;55961;52.156;20.942;2023-02-21T15:49:26;22.70;;;4.78;;
68923;SDS011;55961;52.156;20.942;2023-02-21T15:51:55;14.23;;;3.70;;
68923;SDS011;55961;52.156;20.942;2023-02-21T15:54:24;18.63;;;4.95;;
68923;SDS011;55961;52.156;20.942;2023-02-21T15:59:34;14.43;;;3.23;;
68923;SDS011;55961;52.156;20.942;2023-02-21T16:04:35;21.67;;;4.80;;
68923;SDS011;55961;52.156;20.942;2023-02-21T16:07:03;22.80;;;4.57;;
68923;SDS011;55961;52.156;20.942;2023-02-21T16:09:32;13.05;;;3.35;;
68923;SDS011;55961;52.156;20.942;2023-02-21T16:14:40;19.83;;;4.15;;
68923;SDS011;55961;52.156;20.942;2023-02-21T16:20:00;20.95;;;3.92;;
68923;SDS011;55961;52.156;20.942;2023-02-21T16:27:35;18.55;;;3.53;;
68923;SDS011;55961;52.156;20.942;2023-02-21T16:30:01;18.27;;;3.50;;
68923;SDS011;55961;52.156;20.942;2023-02-21T16:32:29;16.52;;;3.72;;
68923;SDS011;55961;52.156;20.942;2023-02-21T16:34:56;23.98;;;4.68;;
68923;SDS011;55961;52.156;20.942;2023-02-21T16:37:22;22.27;;;4.50;;
68923;SDS011;55961;52.156;20.942;2023-02-21T16:39:49;22.77;;;4.55;;
68923;SDS011;55961;52.156;20.942;2023-02-21T16:42:15;14.73;;;3.78;;
68923;SDS011;55961;52.156;20.942;2023-02-21T16:44:41;18.77;;;4.60;;
68923;SDS011;55961;52.156;20.942;2023-02-21T16:47:10;20.63;;;4.82;;
68923;SDS011;55961;52.156;20.942;2023-02-21T16:49:38;20.03;;;4.53;;
68923;SDS011;55961;52.156;20.942;2023-02-21T16:52:04;19.92;;;4.32;;
68923;SDS011;55961;52.156;20.942;2023-02-21T16:54:30;13.70;;;3.20;;
68923;SDS011;55961;52.156;20.942;2023-02-21T16:56:56;15.03;;;3.57;;
68923;SDS011;55961;52.156;20.942;2023-02-21T16:59:22;18.75;;;3.47;;
68923;SDS011;55961;52.156;20.942;2023-02-21T17:01:50;17.73;;;4.15;;
68923;SDS011;55961;52.156;20.942;2023-02-21T17:04:17;18.48;;;4.38;;
68923;SDS011;55961;52.156;20.942;2023-02-21T17:06:45;17.97;;;4.17;;
68923;SDS011;55961;52.156;20.942;2023-02-21T17:09:17;16.65;;;3.63;;
68923;SDS011;55961;52.156;20.942;2023-02-21T17:11:45;17.85;;;4.18;;
68923;SDS011;55961;52.156;20.942;2023-02-21T17:14:11;22.05;;;4.50;;
68923;SDS011;55961;52.156;20.942;2023-02-21T17:16:37;14.87;;;3.90;;
68923;SDS011;55961;52.156;20.942;2023-02-21T17:19:04;18.03;;;4.00;;
68923;SDS011;55961;52.156;20.942;2023-02-21T17:21:30;17.02;;;4.30;;
68923;SDS011;55961;52.156;20.942;2023-02-21T17:23:56;16.95;;;4.45;;
68923;SDS011;55961;52.156;20.942;2023-02-21T17:26:23;20.10;;;4.63;;
68923;SDS011;55961;52.156;20.942;2023-02-21T17:28:49;19.65;;;4.63;;
68923;SDS011;55961;52.156;20.942;2023-02-21T17:31:16;19.30;;;6.17;;
68923;SDS011;55961;52.156;20.942;2023-02-21T17:33:43;23.65;;;5.78;;
68923;SDS011;55961;52.156;20.942;2023-02-21T17:36:19;24.55;;;6.32;;
68923;SDS011;55961;52.156;20.942;2023-02-21T17:38:47;23.05;;;5.35;;
68923;SDS011;55961;52.156;20.942;2023-02-21T17:41:13;17.60;;;5.50;;
68923;SDS011;55961;52.156;20.942;2023-02-21T17:43:40;22.15;;;6.15;;
68923;SDS011;55961;52.156;20.942;2023-02-21T17:46:09;12.65;;;3.90;;
68923;SDS011;55961;52.156;20.942;2023-02-21T17:48:40;14.40;;;3.85;;
68923;SDS011;55961;52.156;20.942;2023-02-21T17:51:06;13.13;;;3.67;;
68923;SDS011;55961;52.156;20.942;2023-02-21T17:53:33;24.13;;;5.60;;
68923;SDS011;55961;52.156;20.942;2023-02-21T17:55:59;23.25;;;4.90;;
68923;SDS011;55961;52.156;20.942;2023-02-21T17:58:26;20.52;;;3.55;;
68923;SDS011;55961;52.156;20.942;2023-02-21T18:00:52;19.10;;;4.90;;
68923;SDS011;55961;52.156;20.942;2023-02-21T18:03:20;20.27;;;5.40;;
68923;SDS011;55961;52.156;20.942;2023-02-21T18:05:46;20.43;;;4.30;;